首页
METAR-TAF:

METAR-TAF

机场 :

Jimmy Lake, 薩斯喀徹溫, 加拿大

纬度: 54-55N, 经度: 109-57W, 海拔: 658米

当前天气观测

该预报发布于36分钟前的15:00 UTC
风速5节,风向南转西南
温度 17°C
湿度 59%
气压 1012 hPa
能見度: 14.5公里
天空无云

METAR: CWHN 181500Z AUTO 20005KT 9SM CLR 17/09 A2989 RMK SLP128

时间: 09:36 (15:36 UTC)


TAF: 丢失

超过4000个机场的气象观测和天气预报(METAR&TAF报告)。

可查询的气象台以黄色和红色小点在地图上表示。

将鼠标移到小点上方,可查看气象台名称。

然后点击查看天气观测和预报。

如需切换地图:点击带黑十字的绿色按钮放大地图;点击带横线的绿色按钮缩小地图;或者点击绿色箭头查看邻近地区的地图。


METAR-TAF: